createdAt,value
2023-03-22T00:08:51.247Z,0
2023-03-22T00:23:47.345Z,0
2023-03-22T00:38:44.584Z,0
2023-03-22T00:53:42.738Z,0
2023-03-22T01:08:36.450Z,0
2023-03-22T01:23:32.246Z,0
2023-03-22T01:38:28.358Z,0
2023-03-22T01:53:24.706Z,0
2023-03-22T02:08:21.011Z,0
2023-03-22T02:23:17.139Z,0
2023-03-22T02:38:13.944Z,0
2023-03-22T02:53:10.587Z,0
2023-03-22T03:08:06.894Z,0
2023-03-22T03:23:02.916Z,0
2023-03-22T03:37:59.303Z,0.01
2023-03-22T03:52:55.544Z,0
2023-03-22T04:07:50.861Z,0
2023-03-22T04:22:45.908Z,0
2023-03-22T04:37:42.209Z,0
2023-03-22T04:52:38.592Z,0.01
2023-03-22T05:07:34.982Z,0
2023-03-22T05:22:31.525Z,0.01
2023-03-22T05:37:28.078Z,0.03
2023-03-22T05:52:23.618Z,0.03
2023-03-22T06:07:19.626Z,0.05
2023-03-22T06:37:13.264Z,0.06
2023-03-22T06:52:10.006Z,0.08
2023-03-22T07:07:06.962Z,0.1
2023-03-22T07:22:03.595Z,0.13
2023-03-22T07:37:00.496Z,0.12
2023-03-22T07:51:57.082Z,0.19
2023-03-22T08:06:53.748Z,0.16
2023-03-22T08:21:50.121Z,0.11
2023-03-22T08:36:46.130Z,0.19
2023-03-22T08:51:42.277Z,0.23
2023-03-22T09:06:38.893Z,0.29
2023-03-22T09:21:35.092Z,0.63
2023-03-22T09:36:31.761Z,0.66
2023-03-22T09:51:27.875Z,0.64
2023-03-22T10:06:23.816Z,0.95
2023-03-22T10:21:20.278Z,0.31
2023-03-22T10:36:16.875Z,0.59
2023-03-22T10:51:13.358Z,0.78
2023-03-22T11:06:10.205Z,0.34
2023-03-22T11:21:06.687Z,0.41
2023-03-22T11:36:03.511Z,0.29
2023-03-22T11:50:59.692Z,0.24
2023-03-22T12:05:56.440Z,0.18
2023-03-22T12:20:52.658Z,0.12
2023-03-22T12:35:49.004Z,0.1
2023-03-22T12:50:44.792Z,0.11
2023-03-22T13:05:41.016Z,0.1
2023-03-22T13:20:36.577Z,0.1
2023-03-22T13:35:32.661Z,0.1
2023-03-22T13:50:28.918Z,0.1
2023-03-22T14:05:25.348Z,0.1
2023-03-22T14:20:21.853Z,0.1
